createdAt,value
2022-10-02T00:01:54.238Z,20
2022-10-02T00:03:54.159Z,59
2022-10-02T00:06:54.126Z,20
2022-10-02T00:09:54.083Z,10
2022-10-02T00:11:54.248Z,8
2022-10-02T00:14:54.130Z,11
2022-10-02T00:17:54.128Z,31
2022-10-02T00:19:54.135Z,19
2022-10-02T00:22:54.118Z,22
2022-10-02T00:25:54.242Z,13
2022-10-02T00:28:54.104Z,14
2022-10-02T00:30:54.107Z,9
2022-10-02T00:33:54.154Z,13
2022-10-02T00:36:54.185Z,8
2022-10-02T00:38:54.216Z,9
2022-10-02T00:41:54.113Z,11
2022-10-02T00:43:54.139Z,11
2022-10-02T00:46:54.150Z,8
2022-10-02T00:49:54.093Z,10
2022-10-02T00:51:54.106Z,14
2022-10-02T00:54:54.212Z,18
2022-10-02T00:57:54.112Z,15
2022-10-02T01:00:54.200Z,13
2022-10-02T01:03:54.102Z,19
2022-10-02T01:05:54.127Z,13
2022-10-02T01:08:54.102Z,14
2022-10-02T01:10:54.106Z,13
2022-10-02T01:12:54.113Z,13
2022-10-02T01:14:54.533Z,12
2022-10-02T01:17:54.118Z,14
2022-10-02T01:19:54.104Z,14
2022-10-02T01:22:54.135Z,18
2022-10-02T01:25:54.145Z,15
2022-10-02T01:28:54.198Z,13
2022-10-02T01:30:54.150Z,13
2022-10-02T01:33:54.254Z,14
2022-10-02T01:35:54.133Z,11
2022-10-02T01:37:54.203Z,13
2022-10-02T01:40:54.134Z,17
2022-10-02T01:42:54.153Z,13
2022-10-02T01:45:54.213Z,14
2022-10-02T01:48:54.106Z,15
2022-10-02T01:51:54.121Z,19
2022-10-02T01:53:54.135Z,15
2022-10-02T01:56:54.226Z,17
2022-10-02T01:59:54.261Z,16
2022-10-02T02:01:54.222Z,18
2022-10-02T02:04:54.373Z,13
2022-10-02T02:06:54.132Z,18
2022-10-02T02:08:56.483Z,17
2022-10-02T02:11:54.372Z,18
2022-10-02T02:13:54.146Z,21
2022-10-02T02:16:54.276Z,15
2022-10-02T02:18:54.292Z,19
2022-10-02T02:21:54.192Z,14
2022-10-02T02:24:54.144Z,17
2022-10-02T02:27:54.217Z,18
2022-10-02T02:30:54.154Z,18
2022-10-02T02:33:54.174Z,24
2022-10-02T02:36:54.172Z,17
2022-10-02T02:39:54.121Z,17
2022-10-02T02:41:54.167Z,27
2022-10-02T02:44:54.159Z,16
2022-10-02T02:47:54.145Z,16
2022-10-02T02:49:54.149Z,17
2022-10-02T02:52:54.139Z,20
2022-10-02T02:54:54.144Z,16
2022-10-02T02:57:54.166Z,18
2022-10-02T02:59:54.157Z,14
2022-10-02T03:02:54.204Z,16
2022-10-02T03:05:54.159Z,15
2022-10-02T03:08:54.145Z,20
2022-10-02T03:10:54.125Z,17
2022-10-02T03:13:54.148Z,21
2022-10-02T03:16:54.212Z,15
2022-10-02T03:18:54.140Z,17
2022-10-02T03:21:54.347Z,17
2022-10-02T03:23:54.200Z,19
2022-10-02T03:26:54.373Z,15
2022-10-02T03:28:56.589Z,15
2022-10-02T03:30:54.151Z,15
2022-10-02T03:33:55.236Z,15
2022-10-02T03:36:54.146Z,16
2022-10-02T03:39:54.138Z,16
2022-10-02T03:41:54.153Z,22
2022-10-02T03:44:54.143Z,15
2022-10-02T03:46:54.197Z,16
2022-10-02T03:48:54.160Z,17
2022-10-02T03:50:54.299Z,15
2022-10-02T03:53:54.161Z,18
2022-10-02T03:56:54.146Z,17
2022-10-02T03:58:54.140Z,18
2022-10-02T04:01:54.222Z,15
2022-10-02T04:04:54.150Z,14
2022-10-02T04:07:54.152Z,15
2022-10-02T04:09:54.145Z,17
2022-10-02T04:12:54.557Z,16
2022-10-02T04:14:54.141Z,39
2022-10-02T04:17:56.994Z,16
2022-10-02T04:20:54.122Z,29
2022-10-02T04:22:54.208Z,19
2022-10-02T04:25:54.153Z,21
2022-10-02T04:28:54.226Z,17
2022-10-02T04:31:54.241Z,15
2022-10-02T04:33:54.710Z,17
2022-10-02T04:36:54.124Z,13
2022-10-02T04:39:54.140Z,15
2022-10-02T04:41:54.168Z,17
2022-10-02T04:44:54.130Z,35
2022-10-02T04:46:54.146Z,28
2022-10-02T04:48:54.138Z,17
2022-10-02T04:50:54.148Z,19
2022-10-02T04:53:54.158Z,25
2022-10-02T04:56:54.166Z,60
2022-10-02T04:59:54.218Z,21
2022-10-02T05:01:54.223Z,17
2022-10-02T05:04:54.307Z,14
2022-10-02T05:07:54.122Z,19
2022-10-02T05:09:54.573Z,14
2022-10-02T05:12:54.145Z,21
2022-10-02T05:15:54.259Z,19
2022-10-02T05:17:54.161Z,18
2022-10-02T05:20:54.152Z,23
2022-10-02T05:22:56.131Z,35
2022-10-02T05:24:54.118Z,17
2022-10-02T05:27:54.210Z,13
2022-10-02T05:29:54.168Z,18
2022-10-02T05:31:54.184Z,40
2022-10-02T05:33:54.272Z,39
2022-10-02T05:35:54.252Z,61
2022-10-02T05:38:54.149Z,39
2022-10-02T05:40:54.246Z,24
2022-10-02T05:42:54.195Z,19
2022-10-02T05:45:54.311Z,23
2022-10-02T05:48:54.185Z,21
2022-10-02T05:51:54.140Z,17
2022-10-02T05:53:54.137Z,13
2022-10-02T05:55:54.231Z,16
2022-10-02T05:58:54.140Z,23
2022-10-02T06:00:54.206Z,23
2022-10-02T06:02:54.180Z,18
2022-10-02T06:05:54.244Z,16
2022-10-02T06:08:54.150Z,12
2022-10-02T06:10:54.201Z,12
2022-10-02T06:13:54.143Z,16
2022-10-02T06:15:54.324Z,15
2022-10-02T06:18:54.176Z,13
2022-10-02T06:21:54.162Z,15
2022-10-02T06:24:55.165Z,17
2022-10-02T06:26:54.312Z,16
2022-10-02T06:28:54.159Z,14
2022-10-02T06:30:54.170Z,14
2022-10-02T06:33:54.182Z,15
2022-10-02T06:35:54.148Z,15
2022-10-02T06:37:54.169Z,16
2022-10-02T06:40:54.166Z,19
2022-10-02T06:43:54.263Z,14
2022-10-02T06:46:54.193Z,14
2022-10-02T06:48:54.192Z,12
2022-10-02T06:51:54.142Z,17
2022-10-02T06:53:54.287Z,15
2022-10-02T06:56:54.183Z,11
2022-10-02T06:59:54.175Z,12
2022-10-02T07:02:54.179Z,16
2022-10-02T07:04:54.271Z,14
2022-10-02T07:06:54.174Z,12
2022-10-02T07:09:54.281Z,11
2022-10-02T07:12:54.152Z,12
2022-10-02T07:14:54.476Z,13
2022-10-02T07:17:54.404Z,11
2022-10-02T07:19:54.173Z,11
2022-10-02T07:22:54.165Z,9
2022-10-02T07:24:54.296Z,10
2022-10-02T07:27:54.722Z,7
2022-10-02T07:29:54.282Z,12
2022-10-02T07:32:54.162Z,8
2022-10-02T07:34:56.859Z,7
2022-10-02T07:37:54.241Z,8
2022-10-02T07:39:54.299Z,7
2022-10-02T07:42:54.170Z,6
2022-10-02T07:44:54.290Z,6
2022-10-02T07:46:54.195Z,7
2022-10-02T07:48:54.307Z,7
2022-10-02T07:51:54.168Z,6
2022-10-02T07:53:54.241Z,6
2022-10-02T07:56:54.297Z,9
2022-10-02T07:59:54.165Z,9
2022-10-02T08:02:54.299Z,10
2022-10-02T08:04:54.339Z,17
2022-10-02T08:07:54.193Z,11
2022-10-02T08:10:54.219Z,10
2022-10-02T08:13:54.286Z,12
2022-10-02T08:15:54.194Z,11
2022-10-02T08:18:54.251Z,6
2022-10-02T08:20:54.174Z,8
2022-10-02T08:22:54.183Z,7
2022-10-02T08:24:54.311Z,8
2022-10-02T08:27:54.186Z,6
2022-10-02T08:29:54.179Z,8
2022-10-02T08:32:54.199Z,5
2022-10-02T08:34:54.357Z,6
2022-10-02T08:37:55.236Z,7
2022-10-02T08:39:54.293Z,7
2022-10-02T08:41:54.194Z,6
2022-10-02T08:44:54.293Z,8
2022-10-02T08:47:54.194Z,6
2022-10-02T08:50:54.301Z,6
2022-10-02T08:53:54.194Z,5
2022-10-02T08:56:54.310Z,5
2022-10-02T08:59:54.201Z,6
2022-10-02T09:03:54.255Z,5
2022-10-02T09:06:54.243Z,5
2022-10-02T09:09:54.369Z,6
2022-10-02T09:12:54.200Z,5
2022-10-02T09:14:58.144Z,5
2022-10-02T09:17:54.238Z,5
2022-10-02T09:20:54.285Z,6
2022-10-02T09:23:54.233Z,5
2022-10-02T09:26:54.223Z,4
2022-10-02T09:29:54.226Z,4
2022-10-02T09:32:54.215Z,7
2022-10-02T09:35:54.218Z,5
2022-10-02T09:38:54.202Z,6
2022-10-02T09:41:54.197Z,4
2022-10-02T09:43:54.220Z,5
2022-10-02T09:46:54.207Z,5
2022-10-02T09:49:54.206Z,7
2022-10-02T09:52:54.855Z,6
2022-10-02T09:55:54.230Z,7
2022-10-02T09:58:54.222Z,5
2022-10-02T10:00:54.244Z,6
2022-10-02T10:03:54.387Z,6
2022-10-02T10:06:54.190Z,4
2022-10-02T10:08:54.276Z,5
2022-10-02T10:11:54.216Z,5
2022-10-02T10:13:54.392Z,3
2022-10-02T10:15:54.257Z,5
2022-10-02T10:18:54.382Z,5
2022-10-02T10:21:54.201Z,3
2022-10-02T10:23:54.313Z,6
2022-10-02T10:26:54.212Z,7
2022-10-02T10:28:54.286Z,5
2022-10-02T10:31:54.265Z,5
2022-10-02T10:35:54.223Z,6
2022-10-02T10:38:54.292Z,4
2022-10-02T10:40:54.189Z,6
2022-10-02T10:43:54.236Z,7
2022-10-02T10:46:54.202Z,10
2022-10-02T10:49:54.318Z,7
2022-10-02T10:52:54.217Z,7
2022-10-02T10:54:54.217Z,5
2022-10-02T10:57:54.236Z,5
2022-10-02T10:59:54.231Z,5
2022-10-02T11:02:54.205Z,7
2022-10-02T11:05:54.204Z,6
2022-10-02T11:08:54.267Z,7
2022-10-02T11:11:55.308Z,7
2022-10-02T11:13:54.271Z,6
2022-10-02T11:16:54.295Z,6
2022-10-02T11:19:54.223Z,7
2022-10-02T11:22:54.415Z,4
2022-10-02T11:25:54.212Z,5
2022-10-02T11:28:54.205Z,4
2022-10-02T11:31:54.230Z,3
2022-10-02T11:34:54.208Z,7
2022-10-02T11:37:54.229Z,4
2022-10-02T11:40:54.229Z,4
2022-10-02T11:42:54.230Z,4
2022-10-02T11:45:54.272Z,6
2022-10-02T11:48:54.188Z,4
2022-10-02T11:50:54.376Z,4
2022-10-02T11:53:54.222Z,7
2022-10-02T11:55:54.666Z,8
2022-10-02T11:58:54.217Z,7
2022-10-02T12:01:54.405Z,6
2022-10-02T12:04:54.236Z,10
2022-10-02T12:07:57.735Z,9
2022-10-02T12:09:54.231Z,18
2022-10-02T12:12:54.254Z,117
2022-10-02T12:14:54.264Z,203
2022-10-02T12:17:54.251Z,150
2022-10-02T12:19:54.393Z,35
2022-10-02T12:22:54.213Z,18
2022-10-02T12:25:54.251Z,13
2022-10-02T12:28:54.329Z,11
2022-10-02T12:31:54.289Z,9
2022-10-02T12:33:56.540Z,8
2022-10-02T12:36:54.238Z,5
2022-10-02T12:39:54.295Z,4
2022-10-02T12:41:54.264Z,6
2022-10-02T12:43:54.263Z,19
2022-10-02T12:45:54.296Z,12
2022-10-02T12:48:54.231Z,7
2022-10-02T12:51:54.283Z,47
2022-10-02T12:53:54.320Z,19
2022-10-02T12:56:54.246Z,10
2022-10-02T12:59:54.234Z,12
2022-10-02T13:03:01.133Z,6
2022-10-02T13:04:54.233Z,5
2022-10-02T13:06:54.232Z,10
2022-10-02T13:09:54.247Z,8
2022-10-02T13:11:55.950Z,10
2022-10-02T13:13:54.268Z,10
2022-10-02T13:16:54.288Z,7
2022-10-02T13:19:54.267Z,8
2022-10-02T13:21:54.262Z,7
2022-10-02T13:24:54.242Z,7
2022-10-02T13:26:54.249Z,6
2022-10-02T13:28:54.299Z,5
2022-10-02T13:31:54.303Z,4
2022-10-02T13:34:54.233Z,4
2022-10-02T13:36:54.252Z,5
2022-10-02T13:39:54.266Z,5
2022-10-02T13:41:54.569Z,7
2022-10-02T13:43:58.344Z,9
2022-10-02T13:46:54.581Z,5
2022-10-02T13:48:54.390Z,6
2022-10-02T13:51:54.475Z,6
2022-10-02T13:54:54.513Z,5
2022-10-02T13:57:54.436Z,4
2022-10-02T14:00:54.274Z,6
2022-10-02T14:02:54.266Z,4
2022-10-02T14:04:54.245Z,4
2022-10-02T14:06:54.262Z,4
2022-10-02T14:09:54.256Z,3
2022-10-02T14:11:54.261Z,3
2022-10-02T14:14:10.106Z,3
2022-10-02T14:16:54.296Z,7
2022-10-02T14:19:54.254Z,10
2022-10-02T14:21:54.286Z,12
2022-10-02T14:24:54.270Z,9
2022-10-02T14:26:54.262Z,8
2022-10-02T14:29:54.302Z,11
2022-10-02T14:32:54.260Z,8
2022-10-02T14:35:54.266Z,6
2022-10-02T14:37:54.273Z,6
2022-10-02T14:40:54.282Z,7
2022-10-02T14:43:54.252Z,6
2022-10-02T14:46:54.273Z,6
2022-10-02T14:49:54.286Z,3
2022-10-02T14:52:54.276Z,6
2022-10-02T14:55:54.243Z,7
2022-10-02T14:57:54.309Z,17
2022-10-02T14:59:54.314Z,12
2022-10-02T15:02:54.281Z,18
2022-10-02T15:05:54.288Z,17
2022-10-02T15:08:54.240Z,15
2022-10-02T15:10:54.277Z,15
2022-10-02T15:13:54.311Z,14
2022-10-02T15:16:54.270Z,15
2022-10-02T15:18:54.258Z,15
2022-10-02T15:21:54.286Z,12
2022-10-02T15:24:54.256Z,17
2022-10-02T15:26:54.266Z,18
2022-10-02T15:29:54.296Z,9
2022-10-02T15:33:54.279Z,8
2022-10-02T15:36:54.281Z,9
2022-10-02T15:38:54.296Z,12
2022-10-02T15:40:54.365Z,14
2022-10-02T15:43:54.266Z,14
2022-10-02T15:45:54.427Z,13
2022-10-02T15:48:54.264Z,13
2022-10-02T15:50:54.302Z,11
2022-10-02T15:53:54.261Z,11
2022-10-02T15:56:54.291Z,7
2022-10-02T15:58:54.259Z,8
2022-10-02T16:00:54.321Z,12
2022-10-02T16:03:54.266Z,16
2022-10-02T16:05:54.282Z,25
2022-10-02T16:08:54.246Z,18
2022-10-02T16:10:54.288Z,12
2022-10-02T16:12:54.603Z,15
2022-10-02T16:15:54.308Z,14
2022-10-02T16:17:54.287Z,15
2022-10-02T16:20:54.298Z,21
2022-10-02T16:23:54.257Z,33
2022-10-02T16:25:54.290Z,28
2022-10-02T16:28:54.308Z,16
2022-10-02T16:31:54.322Z,16
2022-10-02T16:33:54.288Z,16
2022-10-02T16:36:54.304Z,17
2022-10-02T16:39:54.280Z,25
2022-10-02T16:42:54.282Z,21
2022-10-02T16:44:54.315Z,20
2022-10-02T16:47:54.277Z,22
2022-10-02T16:49:54.299Z,18
2022-10-02T16:52:54.293Z,22
2022-10-02T16:54:54.332Z,17
2022-10-02T16:57:54.300Z,13
2022-10-02T17:00:54.420Z,12
2022-10-02T17:03:54.286Z,15
2022-10-02T17:05:54.289Z,17
2022-10-02T17:08:54.308Z,15
2022-10-02T17:10:54.312Z,18
2022-10-02T17:13:54.312Z,19
2022-10-02T17:16:54.288Z,26
2022-10-02T17:19:54.328Z,28
2022-10-02T17:22:54.260Z,23
2022-10-02T17:24:54.367Z,21
2022-10-02T17:27:54.410Z,18
2022-10-02T17:30:54.303Z,17
2022-10-02T17:32:54.304Z,20
2022-10-02T17:35:54.333Z,20
2022-10-02T17:38:54.278Z,18
2022-10-02T17:40:54.339Z,20
2022-10-02T17:43:54.278Z,15
2022-10-02T17:46:54.295Z,17
2022-10-02T17:48:54.315Z,19
2022-10-02T17:51:54.330Z,11
2022-10-02T17:54:54.295Z,8
2022-10-02T17:56:54.327Z,14
2022-10-02T17:59:54.315Z,17
2022-10-02T18:02:54.301Z,10
2022-10-02T18:04:54.272Z,13
2022-10-02T18:07:54.312Z,11
2022-10-02T18:10:54.295Z,13
2022-10-02T18:12:54.288Z,16
2022-10-02T18:15:54.477Z,21
2022-10-02T18:18:54.273Z,28
2022-10-02T18:20:54.374Z,16
2022-10-02T18:23:54.314Z,22
2022-10-02T18:26:54.296Z,25
2022-10-02T18:28:54.314Z,23
2022-10-02T18:30:54.370Z,20
2022-10-02T18:33:54.311Z,17
2022-10-02T18:35:54.331Z,20
2022-10-02T18:38:54.301Z,19
2022-10-02T18:40:54.347Z,23
2022-10-02T18:43:54.291Z,23
2022-10-02T18:45:54.415Z,34
2022-10-02T18:48:54.333Z,48
2022-10-02T18:51:54.291Z,37
2022-10-02T18:53:54.311Z,32
2022-10-02T18:56:54.315Z,26
2022-10-02T18:59:54.311Z,26
2022-10-02T19:01:54.382Z,24
2022-10-02T19:04:54.287Z,17
2022-10-02T19:07:54.300Z,18
2022-10-02T19:09:54.302Z,20
2022-10-02T19:11:54.313Z,19
2022-10-02T19:14:54.288Z,20
2022-10-02T19:16:54.314Z,19
2022-10-02T19:19:54.320Z,19
2022-10-02T19:22:54.296Z,20
2022-10-02T19:24:54.321Z,18
2022-10-02T19:27:55.073Z,26
2022-10-02T19:30:54.336Z,25
2022-10-02T19:33:54.325Z,22
2022-10-02T19:36:54.356Z,21
2022-10-02T19:39:54.327Z,17
2022-10-02T19:41:54.314Z,18
2022-10-02T19:44:54.333Z,18
2022-10-02T19:47:54.324Z,14
2022-10-02T19:50:54.306Z,26
2022-10-02T19:52:54.316Z,29
2022-10-02T19:55:54.344Z,15
2022-10-02T19:57:54.331Z,17
2022-10-02T20:00:54.374Z,21
2022-10-02T20:03:54.904Z,27
2022-10-02T20:06:54.278Z,19
2022-10-02T20:08:54.299Z,21
2022-10-02T20:11:54.335Z,25
2022-10-02T20:14:54.308Z,17
2022-10-02T20:17:54.390Z,20
2022-10-02T20:19:54.343Z,16
2022-10-02T20:21:54.373Z,127
2022-10-02T20:25:09.950Z,106
2022-10-02T20:28:09.844Z,153
2022-10-02T20:29:54.359Z,106
2022-10-02T20:32:54.308Z,102
2022-10-02T20:35:54.369Z,130
2022-10-02T20:38:54.322Z,86
2022-10-02T20:41:54.325Z,64
2022-10-02T20:43:54.323Z,84
2022-10-02T20:46:54.293Z,62
2022-10-02T20:49:54.339Z,48
2022-10-02T20:51:54.622Z,41
2022-10-02T20:54:54.316Z,36
2022-10-02T20:58:00.969Z,45
2022-10-02T20:59:54.378Z,27
2022-10-02T21:02:54.318Z,21
2022-10-02T21:05:54.312Z,21
2022-10-02T21:07:54.377Z,16
2022-10-02T21:10:54.342Z,17
2022-10-02T21:13:54.310Z,18
2022-10-02T21:16:54.316Z,19
2022-10-02T21:18:54.314Z,17
2022-10-02T21:21:54.332Z,18
2022-10-02T21:24:54.317Z,15
2022-10-02T21:26:54.349Z,17
2022-10-02T21:29:54.320Z,14
2022-10-02T21:31:54.324Z,21
2022-10-02T21:34:54.361Z,22
2022-10-02T21:37:54.345Z,16
2022-10-02T21:40:54.322Z,17
2022-10-02T21:42:54.375Z,42
2022-10-02T21:45:54.390Z,24
2022-10-02T21:47:54.343Z,30
2022-10-02T21:50:54.342Z,21
2022-10-02T21:52:54.375Z,21
2022-10-02T21:55:54.331Z,24
2022-10-02T21:57:54.332Z,25
2022-10-02T21:59:54.346Z,22
2022-10-02T22:02:54.373Z,28
2022-10-02T22:05:54.319Z,30
2022-10-02T22:08:54.335Z,20
2022-10-02T22:10:54.457Z,24
2022-10-02T22:13:54.330Z,40
2022-10-02T22:17:54.564Z,58
2022-10-02T22:20:54.401Z,52
2022-10-02T22:23:54.348Z,30
2022-10-02T22:26:54.379Z,33
2022-10-02T22:29:54.321Z,36
2022-10-02T22:31:54.306Z,47
2022-10-02T22:33:54.323Z,54
2022-10-02T22:35:54.381Z,23
2022-10-02T22:38:54.359Z,24
2022-10-02T22:41:54.347Z,52
2022-10-02T22:43:54.367Z,41
2022-10-02T22:46:54.360Z,34
2022-10-02T22:49:54.321Z,26
2022-10-02T22:51:57.965Z,37
2022-10-02T22:54:54.339Z,27
2022-10-02T22:56:54.348Z,29
2022-10-02T22:58:54.373Z,39
2022-10-02T23:01:54.414Z,35
2022-10-02T23:04:54.390Z,73
2022-10-02T23:07:54.304Z,40
2022-10-02T23:09:54.336Z,28
2022-10-02T23:12:54.366Z,30
2022-10-02T23:15:54.375Z,28
2022-10-02T23:18:54.337Z,36
2022-10-02T23:21:54.354Z,33
2022-10-02T23:23:54.347Z,39
2022-10-02T23:26:54.323Z,37
2022-10-02T23:28:54.322Z,32
2022-10-02T23:30:54.390Z,43
2022-10-02T23:32:54.376Z,46
2022-10-02T23:35:54.382Z,45
2022-10-02T23:37:54.403Z,42
2022-10-02T23:39:54.512Z,51
2022-10-02T23:42:54.356Z,43
2022-10-02T23:45:54.409Z,36
2022-10-02T23:47:54.341Z,40
2022-10-02T23:49:54.365Z,41
2022-10-02T23:51:54.351Z,39
2022-10-02T23:54:54.356Z,32
2022-10-02T23:56:54.377Z,31
2022-10-02T23:58:54.354Z,31
